Time;durP1;ratioP1;P1;durP2;ratioP2;P2;SDS_P1;SDS_P2;PMS_P1;PMS_P2;Temp;Humidity;BMP_temperature;BMP_pressure;BME280_temperature;BME280_humidity;BME280_pressure;Samples;Min_cycle;Max_cycle;Signal;HPM_P1;HPM_P2
2023/02/17 00:00:07;;;;;;;6.37;4.70;;;16.20;42.90;;;;;;5030771;28;20687;-47
2023/02/17 00:02:34;;;;;;;7.30;4.50;;;16.20;43.10;;;;;;5031392;28;20773;-48
2023/02/17 00:05:00;;;;;;;4.87;4.30;;;16.30;43.00;;;;;;5040889;28;20416;-48
2023/02/17 00:07:30;;;;;;;7.70;4.80;;;16.20;42.60;;;;;;5031502;28;20926;-48
2023/02/17 00:09:59;;;;;;;5.47;4.80;;;16.20;42.50;;;;;;5030882;28;20205;-48
2023/02/17 00:12:25;;;;;;;6.47;4.53;;;16.10;42.50;;;;;;5031262;28;20432;-49
2023/02/17 00:14:51;;;;;;;4.97;4.37;;;16.00;42.70;;;;;;5012162;28;20429;-48
2023/02/17 00:17:16;;;;;;;5.87;4.50;;;16.10;42.60;;;;;;5011371;28;20423;-48
2023/02/17 00:19:42;;;;;;;5.13;3.90;;;16.10;42.50;;;;;;5011396;28;20260;-48
2023/02/17 00:22:07;;;;;;;5.00;4.17;;;16.20;42.50;;;;;;5011264;28;20197;-48
2023/02/17 00:24:36;;;;;;;5.77;3.97;;;16.10;42.60;;;;;;5009518;28;20650;-48
2023/02/17 00:27:01;;;;;;;5.80;3.60;;;16.00;43.00;;;;;;5011597;28;20245;-49
2023/02/17 00:29:27;;;;;;;7.03;3.70;;;16.00;43.00;;;;;;5010759;28;20459;-48
2023/02/17 00:31:53;;;;;;;6.57;3.80;;;15.70;43.20;;;;;;5011320;28;20237;-47
2023/02/17 00:34:19;;;;;;;5.27;3.30;;;15.70;43.70;;;;;;5017885;28;20307;-48
2023/02/17 00:36:45;;;;;;;4.83;3.87;;;15.60;43.70;;;;;;5030632;28;20447;-48
2023/02/17 00:39:15;;;;;;;5.40;3.90;;;15.70;43.70;;;;;;5030168;28;20204;-47
2023/02/17 00:41:41;;;;;;;8.33;3.63;;;15.70;43.70;;;;;;5030687;28;20189;-47
2023/02/17 00:44:20;;;;;;;4.70;3.80;;;15.70;43.80;;;;;;5030700;28;20435;-48
2023/02/17 00:46:46;;;;;;;4.10;3.33;;;15.60;43.90;;;;;;5012865;28;20582;-47
2023/02/17 00:49:21;;;;;;;4.93;3.30;;;15.60;43.90;;;;;;5012486;28;20468;-48
2023/02/17 00:51:47;;;;;;;4.57;3.40;;;15.50;44.10;;;;;;5029012;28;20431;-48
2023/02/17 00:54:14;;;;;;;4.73;3.90;;;15.60;44.20;;;;;;5030558;28;20514;-48
2023/02/17 00:56:40;;;;;;;5.53;3.80;;;15.70;44.10;;;;;;5030290;28;20978;-48
2023/02/17 00:59:06;;;;;;;3.97;3.60;;;15.70;44.10;;;;;;5029949;28;20424;-49
2023/02/17 01:01:32;;;;;;;4.87;4.00;;;15.60;44.00;;;;;;5030263;28;20465;-48
2023/02/17 01:03:58;;;;;;;5.03;3.13;;;15.50;44.20;;;;;;5036804;28;20430;-48
2023/02/17 01:06:28;;;;;;;3.67;3.30;;;15.60;44.40;;;;;;5032980;28;20225;-49
2023/02/17 01:08:54;;;;;;;4.00;3.50;;;15.30;44.70;;;;;;5030517;28;20440;-48
2023/02/17 01:11:23;;;;;;;7.93;3.67;;;15.50;44.60;;;;;;5029848;28;20919;-47
2023/02/17 01:13:50;;;;;;;5.20;3.80;;;15.50;44.50;;;;;;5030249;28;20429;-48
2023/02/17 01:16:18;;;;;;;5.70;3.03;;;15.50;44.50;;;;;;5030465;28;20821;-48
2023/02/17 01:18:43;;;;;;;4.30;3.37;;;15.50;44.50;;;;;;5028739;28;20420;-48
2023/02/17 01:21:17;;;;;;;7.40;4.00;;;15.50;44.50;;;;;;5029832;28;20423;-48
2023/02/17 01:23:42;;;;;;;6.70;4.37;;;15.50;44.60;;;;;;5030300;28;20243;-48
2023/02/17 01:26:16;;;;;;;3.37;2.80;;;15.60;44.50;;;;;;5012537;28;20492;-49
2023/02/17 01:28:42;;;;;;;3.97;3.43;;;15.60;44.50;;;;;;5030121;28;20189;-48
2023/02/17 01:31:08;;;;;;;5.20;3.70;;;15.60;44.30;;;;;;5029766;28;20525;-48
2023/02/17 01:33:34;;;;;;;9.20;3.53;;;15.60;44.50;;;;;;5030051;28;20240;-48
2023/02/17 01:36:05;;;;;;;3.90;2.80;;;15.60;44.40;;;;;;5029931;28;20931;-48
2023/02/17 01:38:30;;;;;;;4.13;3.10;;;15.80;44.40;;;;;;5029971;28;20450;-49
2023/02/17 01:40:57;;;;;;;4.77;3.20;;;15.80;44.20;;;;;;5029613;28;20439;-49
2023/02/17 01:43:22;;;;;;;5.70;3.67;;;15.70;44.30;;;;;;5030186;28;20215;-48
2023/02/17 01:45:52;;;;;;;9.03;3.00;;;15.70;44.20;;;;;;5028325;28;20475;-48
2023/02/17 01:48:25;;;;;;;4.20;3.50;;;15.70;44.40;;;;;;5029886;28;20233;-48
2023/02/17 01:51:25;;;;;;;4.50;3.50;;;15.60;44.30;;;;;;5029630;28;20938;-47
2023/02/17 01:54:02;;;;;;;5.27;3.40;;;15.70;44.30;;;;;;5028642;28;20450;-48
2023/02/17 01:56:30;;;;;;;4.83;3.50;;;15.70;44.10;;;;;;5030147;28;20773;-49
2023/02/17 01:59:20;;;;;;;4.97;3.40;;;15.70;44.30;;;;;;5029603;28;20424;-49
2023/02/17 02:01:48;;;;;;;3.27;2.90;;;15.80;44.00;;;;;;5026853;28;20886;-47
2023/02/17 02:04:19;;;;;;;5.00;3.30;;;15.80;43.90;;;;;;5038264;28;20423;-48
2023/02/17 02:06:45;;;;;;;7.70;3.30;;;15.90;43.80;;;;;;5030113;28;20491;-48
2023/02/17 02:09:21;;;;;;;4.40;4.00;;;16.00;43.60;;;;;;5029518;28;20427;-48
2023/02/17 02:11:49;;;;;;;5.20;3.40;;;16.10;43.60;;;;;;5029283;28;20906;-51
2023/02/17 02:14:16;;;;;;;4.23;3.50;;;16.10;43.60;;;;;;5028616;28;20427;-47
2023/02/17 02:17:05;;;;;;;4.63;3.23;;;16.00;43.60;;;;;;5021637;28;20464;-49
2023/02/17 02:20:06;;;;;;;9.23;3.50;;;15.90;43.70;;;;;;5009768;28;20433;-48
2023/02/17 02:22:53;;;;;;;3.23;2.80;;;15.90;43.70;;;;;;5012040;28;20448;-47
2023/02/17 02:25:44;;;;;;;4.90;3.60;;;16.00;43.70;;;;;;5013571;28;20452;-48
2023/02/17 02:28:31;;;;;;;3.53;2.90;;;16.00;43.40;;;;;;5022571;28;20432;-47
2023/02/17 02:31:23;;;;;;;3.70;3.40;;;15.80;43.50;;;;;;5032674;28;20526;-52
2023/02/17 02:33:55;;;;;;;7.87;3.30;;;15.70;43.80;;;;;;5032945;28;20854;-50
2023/02/17 02:36:45;;;;;;;4.73;3.20;;;15.80;43.80;;;;;;5033243;28;20506;-50
2023/02/17 02:39:14;;;;;;;6.87;3.50;;;15.90;43.60;;;;;;5031103;28;20432;-51
2023/02/17 02:41:44;;;;;;;4.87;2.90;;;16.00;43.50;;;;;;5032962;28;20428;-52
2023/02/17 02:44:13;;;;;;;5.27;3.00;;;15.90;43.40;;;;;;5032781;28;20550;-51
2023/02/17 02:46:39;;;;;;;4.17;2.93;;;16.00;43.50;;;;;;5032726;28;20479;-52
2023/02/17 02:49:05;;;;;;;4.00;3.30;;;15.90;43.70;;;;;;5032577;28;20443;-52
2023/02/17 02:51:31;;;;;;;7.27;3.20;;;16.00;43.60;;;;;;5032735;28;20469;-51
2023/02/17 02:54:07;;;;;;;3.90;3.20;;;16.10;43.40;;;;;;5032830;28;20481;-52
2023/02/17 02:56:55;;;;;;;4.43;3.20;;;16.10;43.20;;;;;;5032689;28;20189;-52
2023/02/17 02:59:40;;;;;;;5.33;3.13;;;16.10;43.30;;;;;;5032315;28;20438;-51
2023/02/17 03:02:28;;;;;;;4.73;3.57;;;16.20;43.30;;;;;;5032597;28;20431;-52
2023/02/17 03:05:22;;;;;;;8.30;3.17;;;15.80;43.40;;;;;;5041958;28;20435;-52
2023/02/17 03:08:12;;;;;;;4.50;2.90;;;15.80;43.80;;;;;;5031063;28;20432;-52
2023/02/17 03:10:50;;;;;;;6.00;3.60;;;15.60;44.10;;;;;;5032071;28;20932;-49
2023/02/17 03:13:16;;;;;;;5.00;3.20;;;15.60;44.10;;;;;;5032403;28;20793;-52
2023/02/17 03:15:42;;;;;;;4.80;3.23;;;15.50;44.30;;;;;;5032205;28;20919;-50
2023/02/17 03:18:08;;;;;;;4.47;3.20;;;15.50;44.50;;;;;;5032279;28;20477;-52
2023/02/17 03:20:38;;;;;;;6.60;3.30;;;15.50;44.50;;;;;;5031887;28;20424;-52
2023/02/17 03:23:04;;;;;;;4.07;3.37;;;15.60;44.30;;;;;;5032285;28;20288;-52
2023/02/17 03:25:30;;;;;;;5.57;3.30;;;15.60;44.30;;;;;;5032045;28;20450;-52
2023/02/17 03:27:56;;;;;;;5.83;3.57;;;15.70;44.40;;;;;;5032078;28;20443;-48
2023/02/17 03:30:22;;;;;;;6.23;3.20;;;15.60;44.40;;;;;;5031937;28;20242;-52
2023/02/17 03:32:47;;;;;;;4.50;3.10;;;15.70;44.50;;;;;;5030009;28;20242;-52
2023/02/17 03:35:13;;;;;;;3.83;2.97;;;15.80;44.50;;;;;;5031451;28;20204;-50
2023/02/17 03:37:39;;;;;;;3.90;3.00;;;15.80;44.50;;;;;;5031914;28;20644;-51
2023/02/17 03:40:07;;;;;;;8.07;3.13;;;15.80;44.30;;;;;;5031496;28;20452;-49
2023/02/17 03:42:32;;;;;;;3.47;2.80;;;15.80;44.30;;;;;;5032017;28;20197;-52
2023/02/17 03:44:58;;;;;;;4.23;2.70;;;15.80;44.40;;;;;;5031928;28;20451;-50
2023/02/17 03:47:23;;;;;;;7.20;3.47;;;15.80;44.50;;;;;;5032039;28;20286;-52
2023/02/17 03:49:50;;;;;;;3.83;3.43;;;15.80;44.50;;;;;;5031421;28;20715;-51
2023/02/17 03:52:16;;;;;;;3.90;3.20;;;15.90;44.30;;;;;;5031641;28;20262;-52
2023/02/17 03:54:42;;;;;;;5.17;2.93;;;15.80;44.10;;;;;;5031525;28;20428;-51
2023/02/17 03:57:07;;;;;;;6.03;3.67;;;15.80;44.30;;;;;;5031577;28;20907;-49
2023/02/17 03:59:33;;;;;;;4.37;3.07;;;15.80;44.40;;;;;;5030674;28;20609;-52
2023/02/17 04:01:59;;;;;;;6.83;3.00;;;15.80;44.30;;;;;;5030457;28;20194;-52
2023/02/17 04:04:25;;;;;;;5.57;2.73;;;15.90;44.40;;;;;;5040782;28;20419;-51
2023/02/17 04:06:50;;;;;;;4.13;3.00;;;15.90;44.20;;;;;;5031540;28;20225;-48
2023/02/17 04:09:16;;;;;;;5.70;3.90;;;15.90;44.10;;;;;;5031139;28;20710;-51
2023/02/17 04:11:42;;;;;;;6.07;3.50;;;15.80;44.00;;;;;;5031215;28;20199;-51
2023/02/17 04:14:08;;;;;;;9.30;3.13;;;15.80;44.10;;;;;;5031370;28;20623;-49
2023/02/17 04:16:34;;;;;;;4.03;2.87;;;15.90;44.30;;;;;;5031059;28;20428;-48
2023/02/17 04:19:00;;;;;;;8.17;4.00;;;15.90;44.30;;;;;;5030936;28;20200;-52
2023/02/17 04:21:25;;;;;;;5.40;3.50;;;15.80;44.30;;;;;;5031177;28;20336;-50
2023/02/17 04:23:53;;;;;;;4.77;3.10;;;15.70;44.60;;;;;;5031284;28;20431;-52
2023/02/17 04:26:18;;;;;;;6.60;3.70;;;15.60;45.20;;;;;;5030956;28;20240;-50
2023/02/17 04:28:44;;;;;;;4.17;3.30;;;15.30;44.80;;;;;;5028964;28;20432;-52
2023/02/17 04:31:10;;;;;;;4.70;3.63;;;15.10;45.70;;;;;;5030949;28;20233;-50
2023/02/17 04:33:36;;;;;;;5.30;3.57;;;15.10;45.80;;;;;;5030898;28;20691;-48
2023/02/17 04:36:02;;;;;;;6.93;3.90;;;15.10;45.90;;;;;;5031009;28;20197;-52
2023/02/17 04:38:30;;;;;;;4.40;3.60;;;15.00;46.10;;;;;;5030809;28;20836;-48
2023/02/17 04:40:57;;;;;;;6.43;3.27;;;15.00;46.30;;;;;;5030332;28;20297;-52
2023/02/17 04:43:24;;;;;;;4.03;3.17;;;15.10;46.10;;;;;;5030732;28;20535;-48
2023/02/17 04:45:49;;;;;;;4.83;3.20;;;15.30;45.80;;;;;;5030468;28;20475;-52
2023/02/17 04:48:16;;;;;;;3.13;2.77;;;15.40;45.70;;;;;;5030689;28;20470;-48
2023/02/17 04:50:42;;;;;;;6.03;3.77;;;15.50;45.40;;;;;;5030204;28;20246;-48
2023/02/17 04:53:07;;;;;;;4.87;3.33;;;15.40;45.50;;;;;;5012714;28;20444;-51
2023/02/17 04:55:33;;;;;;;7.40;3.50;;;15.50;45.30;;;;;;5029054;28;20197;-51
2023/02/17 04:57:58;;;;;;;4.27;3.60;;;15.60;45.00;;;;;;5030543;28;20304;-50
2023/02/17 05:00:24;;;;;;;5.13;3.40;;;15.70;44.90;;;;;;5030162;28;20185;-50
2023/02/17 05:02:50;;;;;;;5.00;3.13;;;15.80;44.80;;;;;;5030549;28;20656;-48
2023/02/17 05:05:17;;;;;;;4.53;3.53;;;15.80;44.80;;;;;;5039847;28;20416;-52
2023/02/17 05:07:44;;;;;;;7.53;3.23;;;15.70;44.80;;;;;;5030349;28;20232;-52
2023/02/17 05:10:10;;;;;;;4.03;3.53;;;15.80;44.80;;;;;;5029947;28;20424;-51
2023/02/17 05:12:36;;;;;;;7.43;3.50;;;16.00;44.70;;;;;;5029571;28;20420;-48
2023/02/17 05:15:02;;;;;;;3.80;3.23;;;15.90;44.70;;;;;;5010797;28;20958;-50
2023/02/17 05:17:28;;;;;;;5.20;3.13;;;16.00;44.80;;;;;;5010474;28;20201;-51
2023/02/17 05:19:53;;;;;;;10.80;3.37;;;15.80;44.70;;;;;;5010222;28;20433;-50
2023/02/17 05:22:19;;;;;;;5.23;3.33;;;15.80;45.20;;;;;;5009344;28;20190;-49
2023/02/17 05:24:44;;;;;;;4.43;3.57;;;15.80;45.20;;;;;;5010509;28;20277;-51
2023/02/17 05:27:10;;;;;;;4.67;3.10;;;15.90;45.20;;;;;;5010160;28;20280;-51
2023/02/17 05:29:35;;;;;;;4.37;3.33;;;16.00;45.00;;;;;;5009984;28;20190;-49
2023/02/17 05:32:01;;;;;;;3.50;3.20;;;16.00;45.20;;;;;;5010341;28;20229;-48
2023/02/17 05:34:27;;;;;;;3.33;3.03;;;16.00;44.90;;;;;;5018045;28;20631;-51
2023/02/17 05:36:53;;;;;;;4.63;3.13;;;16.10;44.90;;;;;;5030149;28;20493;-48
2023/02/17 05:39:18;;;;;;;3.87;2.80;;;16.00;44.90;;;;;;5029679;28;20691;-51
2023/02/17 05:41:44;;;;;;;4.20;3.80;;;16.10;45.00;;;;;;5030061;28;20243;-49
2023/02/17 05:44:09;;;;;;;5.40;3.07;;;15.90;45.50;;;;;;5030155;28;20185;-48
2023/02/17 05:46:35;;;;;;;5.13;3.50;;;15.80;45.70;;;;;;5029958;28;20307;-49
2023/02/17 05:49:00;;;;;;;5.80;4.00;;;15.80;46.20;;;;;;5028124;28;20323;-51
2023/02/17 05:51:26;;;;;;;4.13;3.43;;;15.80;46.00;;;;;;5029946;28;20669;-48
2023/02/17 05:53:52;;;;;;;5.33;3.60;;;15.80;46.20;;;;;;5030160;28;20286;-48
2023/02/17 05:56:17;;;;;;;11.83;4.37;;;15.80;46.40;;;;;;5030480;28;20682;-49
2023/02/17 05:58:43;;;;;;;6.60;4.23;;;15.90;46.70;;;;;;5033829;28;20497;-49
2023/02/17 06:01:10;;;;;;;7.23;3.97;;;15.90;46.80;;;;;;5033744;28;20194;-51
2023/02/17 06:03:36;;;;;;;8.53;3.83;;;15.90;47.00;;;;;;5036685;28;20189;-47
2023/02/17 06:06:01;;;;;;;6.13;3.77;;;16.10;46.80;;;;;;5039150;28;20494;-51
2023/02/17 06:08:27;;;;;;;4.37;3.13;;;16.00;46.90;;;;;;5033785;28;20428;-51
2023/02/17 06:10:53;;;;;;;7.83;3.77;;;15.90;47.20;;;;;;5033712;28;20204;-49
2023/02/17 06:13:20;;;;;;;5.43;4.17;;;15.80;47.40;;;;;;5033771;28;20637;-49
2023/02/17 06:15:46;;;;;;;7.67;3.67;;;15.80;47.50;;;;;;5031728;28;20777;-52
2023/02/17 06:18:12;;;;;;;5.33;3.67;;;15.90;47.50;;;;;;5033314;28;20431;-47
2023/02/17 06:20:38;;;;;;;6.30;3.80;;;15.80;47.90;;;;;;5032922;28;20420;-48
2023/02/17 06:23:04;;;;;;;7.17;3.47;;;15.70;48.30;;;;;;5033355;28;20473;-52
2023/02/17 06:25:30;;;;;;;4.93;3.60;;;15.60;48.80;;;;;;5033083;28;20431;-49
2023/02/17 06:27:56;;;;;;;8.40;3.23;;;15.30;49.20;;;;;;5033308;28;20197;-48
2023/02/17 06:30:22;;;;;;;4.50;3.10;;;15.20;49.80;;;;;;5032751;28;20458;-50
2023/02/17 06:32:48;;;;;;;7.00;2.90;;;15.40;49.80;;;;;;5032952;28;20245;-49
2023/02/17 06:35:14;;;;;;;7.67;3.77;;;15.50;49.50;;;;;;5032673;28;20432;-48
2023/02/17 06:37:40;;;;;;;9.13;3.87;;;15.60;49.40;;;;;;5033114;28;20232;-49
2023/02/17 06:40:06;;;;;;;7.10;4.17;;;15.80;49.20;;;;;;5032806;28;20185;-48
2023/02/17 06:42:31;;;;;;;7.33;3.80;;;15.80;49.00;;;;;;5031582;28;20217;-47
2023/02/17 06:44:59;;;;;;;8.37;4.60;;;15.70;49.10;;;;;;5032974;28;20460;-48
2023/02/17 06:47:25;;;;;;;6.43;4.00;;;15.70;49.10;;;;;;5032767;28;20239;-48
2023/02/17 06:49:51;;;;;;;9.63;4.97;;;15.70;49.40;;;;;;5032752;28;20857;-47
2023/02/17 06:52:16;;;;;;;11.00;4.17;;;15.80;49.20;;;;;;5032772;28;20236;-48
2023/02/17 06:54:42;;;;;;;5.13;3.57;;;15.80;49.20;;;;;;5032785;28;20613;-48
2023/02/17 06:57:08;;;;;;;6.80;4.27;;;15.70;49.50;;;;;;5032632;28;20263;-47
2023/02/17 06:59:33;;;;;;;3.90;3.20;;;15.40;49.90;;;;;;5032312;28;20288;-48
2023/02/17 07:01:59;;;;;;;3.97;3.30;;;15.50;50.20;;;;;;5032777;28;20193;-50
2023/02/17 07:04:24;;;;;;;8.13;4.00;;;15.60;50.20;;;;;;5042620;28;20295;-50
2023/02/17 07:06:50;;;;;;;5.73;3.40;;;15.30;50.50;;;;;;5032554;28;20229;-48
2023/02/17 07:09:16;;;;;;;4.63;3.33;;;15.10;51.20;;;;;;5030405;28;20193;-48
2023/02/17 07:11:43;;;;;;;6.20;3.17;;;15.00;51.50;;;;;;5032492;28;20189;-49
2023/02/17 07:14:08;;;;;;;6.00;3.70;;;15.00;51.60;;;;;;5032242;28;20209;-48
2023/02/17 07:16:34;;;;;;;3.67;3.20;;;15.00;51.90;;;;;;5032280;28;20787;-48
2023/02/17 07:19:00;;;;;;;3.63;3.00;;;15.00;51.80;;;;;;5032097;28;20319;-47
2023/02/17 07:21:25;;;;;;;4.43;3.13;;;15.00;51.90;;;;;;5032250;28;20197;-48
2023/02/17 07:23:51;;;;;;;6.63;3.73;;;15.00;51.70;;;;;;5032438;28;20197;-49
2023/02/17 07:26:16;;;;;;;4.40;3.40;;;14.90;52.00;;;;;;5032175;28;20256;-48
2023/02/17 07:28:43;;;;;;;6.50;3.13;;;15.00;52.00;;;;;;5031685;28;20633;-48
2023/02/17 07:31:14;;;;;;;4.50;2.90;;;14.90;52.00;;;;;;5031803;28;20241;-49
2023/02/17 07:33:41;;;;;;;4.50;3.33;;;14.90;52.00;;;;;;5031844;28;20965;-48
2023/02/17 07:36:08;;;;;;;2.90;2.60;;;14.80;52.60;;;;;;5030814;28;20432;-50
2023/02/17 07:38:34;;;;;;;4.40;3.63;;;14.60;52.90;;;;;;5031392;28;20531;-48
2023/02/17 07:41:18;;;;;;;3.27;2.97;;;14.60;53.70;;;;;;5032266;28;20424;-49
2023/02/17 07:43:44;;;;;;;3.80;2.90;;;14.50;53.30;;;;;;5031809;28;20424;-48
2023/02/17 07:46:11;;;;;;;4.90;3.10;;;14.50;53.40;;;;;;5031976;28;21035;-48
2023/02/17 07:48:37;;;;;;;5.87;2.97;;;14.30;53.80;;;;;;5031239;28;20435;-48
2023/02/17 07:51:06;;;;;;;3.90;2.70;;;14.30;54.20;;;;;;5032075;28;20919;-49
2023/02/17 07:53:32;;;;;;;4.63;3.50;;;14.40;54.20;;;;;;5031601;28;20193;-48
2023/02/17 07:55:58;;;;;;;5.53;3.47;;;14.60;54.10;;;;;;5031704;28;20789;-47
2023/02/17 07:58:23;;;;;;;5.93;2.80;;;14.80;53.90;;;;;;5031194;28;20519;-48
2023/02/17 08:00:49;;;;;;;3.83;2.80;;;14.60;53.90;;;;;;5031737;28;20238;-48
2023/02/17 08:03:14;;;;;;;14.60;3.10;;;14.60;53.80;;;;;;5030098;28;20193;-47
2023/02/17 08:05:42;;;;;;;5.67;3.00;;;14.70;53.80;;;;;;5040685;28;20648;-48
2023/02/17 08:13:36;;;;;;;3.73;3.30;;;14.40;54.70;;;;;;5011709;28;20947;-48
2023/02/17 08:16:02;;;;;;;2.77;2.50;;;14.50;54.80;;;;;;5011401;28;20437;-48
2023/02/17 08:18:28;;;;;;;4.93;2.70;;;14.30;55.10;;;;;;5011016;28;20569;-47
2023/02/17 08:20:53;;;;;;;4.33;2.87;;;14.40;55.20;;;;;;5011036;28;20283;-50
2023/02/17 08:23:20;;;;;;;4.63;2.97;;;14.40;55.20;;;;;;5011467;28;20206;-48
2023/02/17 08:25:45;;;;;;;4.43;2.87;;;14.70;55.10;;;;;;5011246;28;20194;-48
2023/02/17 08:28:12;;;;;;;3.47;2.50;;;14.90;55.20;;;;;;5011561;28;20436;-47
2023/02/17 08:30:37;;;;;;;3.20;2.70;;;14.70;54.50;;;;;;5009150;28;20642;-48
2023/02/17 08:33:04;;;;;;;3.00;2.70;;;14.60;55.00;;;;;;5018924;28;20440;-49
2023/02/17 08:35:30;;;;;;;6.17;2.40;;;14.80;55.00;;;;;;5030998;28;20219;-49
2023/02/17 08:37:56;;;;;;;4.93;2.60;;;15.00;54.90;;;;;;5030768;28;20436;-48
2023/02/17 08:40:22;;;;;;;4.17;2.80;;;14.80;55.20;;;;;;5030216;28;20197;-48
2023/02/17 08:42:47;;;;;;;3.13;2.77;;;14.80;55.50;;;;;;5030716;28;20189;-49
2023/02/17 08:45:14;;;;;;;2.80;2.13;;;14.80;55.40;;;;;;5030572;28;20443;-51
2023/02/17 08:47:39;;;;;;;2.83;2.40;;;15.00;55.30;;;;;;5030766;28;20282;-48
2023/02/17 08:50:07;;;;;;;3.83;2.70;;;14.90;55.20;;;;;;5029998;28;20534;-48
2023/02/17 08:52:33;;;;;;;4.83;2.70;;;14.90;55.40;;;;;;5030482;28;20197;-48
2023/02/17 08:54:59;;;;;;;3.47;2.60;;;14.90;55.70;;;;;;5030441;28;20439;-48
2023/02/17 08:57:25;;;;;;;4.90;2.43;;;15.00;55.70;;;;;;5028871;28;20424;-49
2023/02/17 08:59:51;;;;;;;4.63;2.17;;;14.80;56.20;;;;;;5030038;28;20189;-48
2023/02/17 09:02:17;;;;;;;3.80;3.10;;;14.90;56.50;;;;;;5030502;28;20193;-48
2023/02/17 09:04:43;;;;;;;4.93;2.63;;;15.10;56.30;;;;;;5039237;28;20502;-49
2023/02/17 09:07:12;;;;;;;2.17;1.97;;;15.20;55.80;;;;;;5030324;28;20229;-48
2023/02/17 09:09:37;;;;;;;4.63;2.67;;;14.80;56.40;;;;;;5030054;28;20432;-48
2023/02/17 09:12:03;;;;;;;4.77;2.17;;;14.90;56.80;;;;;;5030319;28;20973;-48
2023/02/17 09:14:29;;;;;;;3.97;2.50;;;14.80;56.80;;;;;;5030046;28;20193;-48
2023/02/17 09:16:55;;;;;;;3.07;2.80;;;14.90;57.10;;;;;;5030252;28;20204;-49
2023/02/17 09:19:21;;;;;;;3.50;2.17;;;15.00;57.10;;;;;;5029682;28;20197;-50
2023/02/17 09:21:47;;;;;;;2.10;1.87;;;15.00;57.00;;;;;;5030492;28;20463;-49
2023/02/17 09:24:14;;;;;;;2.30;2.10;;;14.70;57.30;;;;;;5028574;28;20489;-48
2023/02/17 09:26:40;;;;;;;4.07;2.50;;;14.60;57.60;;;;;;5030099;28;20217;-48
2023/02/17 09:29:07;;;;;;;3.23;1.63;;;14.90;57.60;;;;;;5030041;28;20420;-48
2023/02/17 09:31:34;;;;;;;2.40;1.80;;;14.70;57.80;;;;;;5030833;28;20459;-48
2023/02/17 09:34:00;;;;;;;2.93;2.00;;;14.70;57.80;;;;;;5034200;28;20509;-48
2023/02/17 09:36:28;;;;;;;1.93;1.67;;;14.90;57.70;;;;;;5034187;28;20423;-48
2023/02/17 09:38:54;;;;;;;2.20;1.70;;;15.00;57.70;;;;;;5034109;28;20513;-50
2023/02/17 09:41:34;;;;;;;5.30;2.20;;;15.10;57.50;;;;;;5034584;28;20937;-49
2023/02/17 09:44:01;;;;;;;5.67;2.63;;;15.30;57.10;;;;;;5034311;28;20435;-48
2023/02/17 09:46:35;;;;;;;3.30;2.20;;;15.40;56.70;;;;;;5033877;28;20518;-48
2023/02/17 09:49:11;;;;;;;4.37;2.37;;;15.40;56.80;;;;;;5033473;28;20419;-48
2023/02/17 09:51:44;;;;;;;5.13;1.90;;;15.40;57.20;;;;;;5032859;28;20436;-49
2023/02/17 09:54:39;;;;;;;4.37;2.10;;;15.40;56.80;;;;;;5034065;28;20416;-48
2023/02/17 09:57:11;;;;;;;3.00;2.60;;;15.30;57.10;;;;;;5028751;28;20436;-48
2023/02/17 09:59:48;;;;;;;4.53;2.00;;;15.40;57.20;;;;;;5033398;28;20511;-49
2023/02/17 10:02:23;;;;;;;2.87;2.03;;;15.40;57.20;;;;;;5033874;28;20451;-47
2023/02/17 10:04:51;;;;;;;2.90;2.20;;;15.70;56.80;;;;;;5042242;28;20455;-48
2023/02/17 10:07:21;;;;;;;3.70;2.10;;;15.50;56.80;;;;;;5033520;28;20487;-49
2023/02/17 10:09:57;;;;;;;4.73;2.10;;;15.30;57.30;;;;;;5033177;28;20434;-48
2023/02/17 10:12:26;;;;;;;2.50;2.17;;;15.40;57.50;;;;;;5033594;28;20439;-49
2023/02/17 10:14:56;;;;;;;4.37;2.10;;;15.50;57.50;;;;;;5033570;28;20435;-48
2023/02/17 10:17:34;;;;;;;2.40;1.90;;;15.30;57.40;;;;;;5031980;28;20432;-49
2023/02/17 10:20:12;;;;;;;2.07;1.80;;;15.40;58.00;;;;;;5033173;28;20485;-48
2023/02/17 10:22:41;;;;;;;2.30;1.97;;;15.60;57.70;;;;;;5033488;28;20431;-48
2023/02/17 10:25:17;;;;;;;2.17;1.60;;;15.60;57.40;;;;;;5033476;28;20518;-49
2023/02/17 10:28:03;;;;;;;4.40;2.23;;;15.50;57.50;;;;;;5033291;28;20495;-49
2023/02/17 10:30:51;;;;;;;3.30;1.80;;;15.50;57.60;;;;;;5033074;28;20514;-48
2023/02/17 10:33:32;;;;;;;3.20;2.17;;;15.60;57.60;;;;;;5033245;28;20427;-49
2023/02/17 10:36:31;;;;;;;2.40;1.90;;;15.60;57.80;;;;;;5020639;28;20730;-48
2023/02/17 10:39:13;;;;;;;6.67;2.40;;;16.00;57.50;;;;;;5032505;28;20958;-48
2023/02/17 10:41:41;;;;;;;1.60;1.50;;;16.00;57.10;;;;;;5032854;28;20439;-48
2023/02/17 10:44:16;;;;;;;6.50;3.50;;;15.90;57.10;;;;;;5031027;28;20507;-49
2023/02/17 10:46:43;;;;;;;2.83;1.50;;;16.10;57.30;;;;;;5032683;28;20548;-47
2023/02/17 10:49:26;;;;;;;2.83;2.30;;;16.00;57.00;;;;;;5032631;28;20478;-48
2023/02/17 10:51:51;;;;;;;3.10;1.90;;;16.10;56.80;;;;;;5015112;28;20797;-53
2023/02/17 10:54:29;;;;;;;2.87;1.87;;;16.30;56.80;;;;;;5032855;28;20428;-51
2023/02/17 10:56:57;;;;;;;2.30;1.90;;;16.60;56.40;;;;;;5032501;28;20204;-52
2023/02/17 10:59:36;;;;;;;2.20;1.60;;;16.70;56.20;;;;;;5032892;28;20930;-52
2023/02/17 11:02:35;;;;;;;1.80;1.70;;;16.70;55.70;;;;;;5033069;28;20523;-52
2023/02/17 11:05:00;;;;;;;2.93;1.93;;;16.80;55.80;;;;;;5006011;28;20469;-52
2023/02/17 11:07:33;;;;;;;2.23;1.77;;;17.00;55.30;;;;;;5012911;28;20520;-51
2023/02/17 11:10:02;;;;;;;1.70;1.43;;;16.80;55.20;;;;;;5012453;28;20248;-52
2023/02/17 11:12:38;;;;;;;2.80;1.30;;;16.90;55.40;;;;;;5011471;28;20532;-52
2023/02/17 11:15:15;;;;;;;3.13;1.40;;;17.10;55.30;;;;;;5020255;28;21060;-52
2023/02/17 11:17:41;;;;;;;4.77;2.10;;;17.00;55.00;;;;;;5032570;28;21006;-50
2023/02/17 11:20:13;;;;;;;2.20;1.47;;;16.80;55.30;;;;;;5032048;28;20771;-51
2023/02/17 11:22:40;;;;;;;1.80;1.60;;;16.80;55.90;;;;;;5032167;28;20953;-52
2023/02/17 11:25:19;;;;;;;2.20;1.80;;;16.90;55.70;;;;;;5032258;28;20479;-52
2023/02/17 11:27:54;;;;;;;3.57;2.13;;;16.90;55.60;;;;;;5032047;28;20498;-48
2023/02/17 11:30:20;;;;;;;3.10;1.40;;;17.00;55.60;;;;;;5032070;28;20463;-48
2023/02/17 11:32:46;;;;;;;2.17;1.77;;;17.00;55.50;;;;;;5031856;28;20848;-49
2023/02/17 11:35:41;;;;;;;2.60;1.47;;;16.80;55.50;;;;;;5032099;28;20189;-49
2023/02/17 11:38:12;;;;;;;2.53;1.57;;;16.70;56.10;;;;;;5021865;28;20432;-49
2023/02/17 11:40:38;;;;;;;1.87;1.67;;;16.60;56.30;;;;;;5031766;28;20428;-48
2023/02/17 11:43:04;;;;;;;1.60;1.50;;;16.70;57.80;;;;;;5032224;28;20450;-52
2023/02/17 11:45:51;;;;;;;1.80;1.57;;;16.70;58.60;;;;;;5031651;28;20193;-51
2023/02/17 11:48:55;;;;;;;4.10;1.70;;;16.70;59.10;;;;;;5031370;28;20775;-50
2023/02/17 11:51:54;;;;;;;3.40;1.47;;;16.90;58.70;;;;;;5031488;28;20486;-50
2023/02/17 11:54:55;;;;;;;1.53;1.20;;;17.10;58.40;;;;;;5030939;28;20439;-49
2023/02/17 11:57:39;;;;;;;3.10;1.40;;;17.00;57.90;;;;;;5022971;28;20440;-51
2023/02/17 12:00:29;;;;;;;1.50;1.27;;;17.20;57.50;;;;;;5031167;28;20432;-52
2023/02/17 12:03:14;;;;;;;2.93;1.30;;;17.20;57.50;;;;;;5031485;28;20428;-52
2023/02/17 12:06:00;;;;;;;1.23;1.13;;;17.10;57.40;;;;;;5038008;28;20516;-49
2023/02/17 12:08:47;;;;;;;1.77;1.30;;;16.80;57.30;;;;;;5031295;28;20440;-52
2023/02/17 12:11:36;;;;;;;1.33;1.23;;;16.70;57.60;;;;;;5031269;28;20498;-52
2023/02/17 12:14:20;;;;;;;1.03;0.93;;;16.70;58.00;;;;;;5031272;28;20428;-52
2023/02/17 12:17:25;;;;;;;1.40;1.30;;;17.00;58.40;;;;;;5031487;28;20672;-51
2023/02/17 12:20:15;;;;;;;1.60;1.33;;;17.10;58.10;;;;;;5030558;28;20443;-48
2023/02/17 12:22:45;;;;;;;1.63;1.20;;;17.10;57.60;;;;;;5030820;28;20446;-51
2023/02/17 12:25:20;;;;;;;1.60;1.27;;;17.20;57.30;;;;;;5031048;28;20482;-48
2023/02/17 12:28:36;;;;;;;1.33;1.23;;;17.20;57.10;;;;;;5031067;28;20498;-51
2023/02/17 12:31:04;;;;;;;1.90;1.30;;;17.20;57.40;;;;;;5017153;28;20819;-51
2023/02/17 12:33:30;;;;;;;1.50;1.40;;;17.20;57.00;;;;;;5030073;28;20531;-51
2023/02/17 12:36:02;;;;;;;1.97;1.37;;;17.20;57.10;;;;;;5031078;28;20535;-49
2023/02/17 12:38:38;;;;;;;3.50;1.27;;;17.10;56.80;;;;;;5030514;28;20185;-51
2023/02/17 12:41:12;;;;;;;2.50;1.23;;;17.20;57.00;;;;;;5030905;28;20467;-51
2023/02/17 12:43:40;;;;;;;3.43;1.07;;;17.00;57.00;;;;;;5030902;28;20432;-50
2023/02/17 12:46:11;;;;;;;2.43;1.23;;;16.90;57.40;;;;;;5030648;28;20480;-50
2023/02/17 12:48:46;;;;;;;1.87;1.23;;;17.10;57.50;;;;;;5030159;28;20799;-50
2023/02/17 12:51:16;;;;;;;1.40;1.20;;;17.30;57.00;;;;;;5030765;28;20485;-50
2023/02/17 12:53:57;;;;;;;1.30;1.20;;;17.30;56.70;;;;;;5030782;28;20487;-52
2023/02/17 12:56:30;;;;;;;1.47;1.20;;;17.40;56.70;;;;;;5030603;28;20442;-52
2023/02/17 12:59:03;;;;;;;1.30;1.20;;;17.30;56.50;;;;;;5028759;28;20953;-51
2023/02/17 13:01:31;;;;;;;1.37;1.10;;;17.20;56.60;;;;;;5030439;28;20432;-53
2023/02/17 13:03:59;;;;;;;1.30;1.10;;;17.40;56.40;;;;;;5035962;28;20926;-49
2023/02/17 13:06:33;;;;;;;0.97;0.90;;;17.60;56.10;;;;;;5032565;28;21025;-53